sensor_id;sensor_type;location;lat;lon;timestamp;temperature;humidity
11043;DHT22;5574;48.786;10.120;2023-04-03T00:01:34;5.00;99.90
11043;DHT22;5574;48.786;10.120;2023-04-03T00:04:03;5.00;99.90
11043;DHT22;5574;48.786;10.120;2023-04-03T00:06:30;5.00;99.90
11043;DHT22;5574;48.786;10.120;2023-04-03T00:08:57;5.00;99.90
11043;DHT22;5574;48.786;10.120;2023-04-03T00:11:25;5.00;99.90
11043;DHT22;5574;48.786;10.120;2023-04-03T00:13:51;4.90;99.90
11043;DHT22;5574;48.786;10.120;2023-04-03T00:16:18;4.90;99.90
11043;DHT22;5574;48.786;10.120;2023-04-03T00:18:45;4.90;99.90
11043;DHT22;5574;48.786;10.120;2023-04-03T00:21:13;4.90;99.90
11043;DHT22;5574;48.786;10.120;2023-04-03T00:23:40;5.00;99.90
11043;DHT22;5574;48.786;10.120;2023-04-03T00:26:06;5.00;99.90
11043;DHT22;5574;48.786;10.120;2023-04-03T00:28:34;5.10;99.90
11043;DHT22;5574;48.786;10.120;2023-04-03T00:31:01;5.10;99.90
11043;DHT22;5574;48.786;10.120;2023-04-03T00:33:28;5.00;99.90
11043;DHT22;5574;48.786;10.120;2023-04-03T00:35:54;5.00;99.90
11043;DHT22;5574;48.786;10.120;2023-04-03T00:38:21;5.00;99.90
11043;DHT22;5574;48.786;10.120;2023-04-03T00:40:49;5.00;99.90
11043;DHT22;5574;48.786;10.120;2023-04-03T00:43:18;5.00;99.90
11043;DHT22;5574;48.786;10.120;2023-04-03T00:45:47;5.00;99.90
11043;DHT22;5574;48.786;10.120;2023-04-03T00:48:18;5.00;99.90
11043;DHT22;5574;48.786;10.120;2023-04-03T00:50:46;5.00;99.90
11043;DHT22;5574;48.786;10.120;2023-04-03T00:53:16;5.00;99.90
11043;DHT22;5574;48.786;10.120;2023-04-03T00:55:44;5.00;99.90
11043;DHT22;5574;48.786;10.120;2023-04-03T00:58:12;5.00;99.90
11043;DHT22;5574;48.786;10.120;2023-04-03T01:00:40;5.00;99.90
11043;DHT22;5574;48.786;10.120;2023-04-03T01:03:11;4.90;99.90
11043;DHT22;5574;48.786;10.120;2023-04-03T01:05:38;5.00;99.90
11043;DHT22;5574;48.786;10.120;2023-04-03T01:08:05;4.90;99.90
11043;DHT22;5574;48.786;10.120;2023-04-03T01:10:31;5.00;99.90
11043;DHT22;5574;48.786;10.120;2023-04-03T01:12:59;5.00;99.90
11043;DHT22;5574;48.786;10.120;2023-04-03T01:15:27;4.90;99.90
11043;DHT22;5574;48.786;10.120;2023-04-03T01:17:56;4.90;99.90
11043;DHT22;5574;48.786;10.120;2023-04-03T01:23:49;5.00;99.90
11043;DHT22;5574;48.786;10.120;2023-04-03T01:26:16;4.90;99.90
11043;DHT22;5574;48.786;10.120;2023-04-03T01:28:43;4.90;99.90
11043;DHT22;5574;48.786;10.120;2023-04-03T01:31:15;4.90;99.90
11043;DHT22;5574;48.786;10.120;2023-04-03T01:33:46;4.90;99.90
11043;DHT22;5574;48.786;10.120;2023-04-03T01:36:15;4.90;99.90
11043;DHT22;5574;48.786;10.120;2023-04-03T01:38:42;4.90;99.90
11043;DHT22;5574;48.786;10.120;2023-04-03T01:41:09;4.90;99.90
11043;DHT22;5574;48.786;10.120;2023-04-03T01:43:36;4.90;99.90
11043;DHT22;5574;48.786;10.120;2023-04-03T01:46:02;4.80;99.90
11043;DHT22;5574;48.786;10.120;2023-04-03T01:48:29;4.80;99.90
11043;DHT22;5574;48.786;10.120;2023-04-03T01:50:57;4.80;99.90
11043;DHT22;5574;48.786;10.120;2023-04-03T01:53:24;4.80;99.90
11043;DHT22;5574;48.786;10.120;2023-04-03T01:55:50;4.80;99.90
11043;DHT22;5574;48.786;10.120;2023-04-03T01:58:17;4.80;99.90
11043;DHT22;5574;48.786;10.120;2023-04-03T02:00:44;4.80;99.90
11043;DHT22;5574;48.786;10.120;2023-04-03T02:03:11;4.80;99.90
11043;DHT22;5574;48.786;10.120;2023-04-03T02:05:38;4.80;99.90
11043;DHT22;5574;48.786;10.120;2023-04-03T02:08:06;4.80;99.90
11043;DHT22;5574;48.786;10.120;2023-04-03T02:10:33;4.70;99.90
11043;DHT22;5574;48.786;10.120;2023-04-03T02:12:59;4.80;99.90
11043;DHT22;5574;48.786;10.120;2023-04-03T02:15:26;4.70;99.90
11043;DHT22;5574;48.786;10.120;2023-04-03T02:17:53;4.70;99.90
11043;DHT22;5574;48.786;10.120;2023-04-03T02:20:20;4.70;99.90
11043;DHT22;5574;48.786;10.120;2023-04-03T02:22:47;4.70;99.90
11043;DHT22;5574;48.786;10.120;2023-04-03T02:25:15;4.70;99.90
11043;DHT22;5574;48.786;10.120;2023-04-03T02:27:43;4.70;99.90
11043;DHT22;5574;48.786;10.120;2023-04-03T02:30:10;4.70;99.90
11043;DHT22;5574;48.786;10.120;2023-04-03T02:32:37;4.70;99.90
11043;DHT22;5574;48.786;10.120;2023-04-03T02:35:04;4.70;99.90
11043;DHT22;5574;48.786;10.120;2023-04-03T02:37:31;4.70;99.90
11043;DHT22;5574;48.786;10.120;2023-04-03T02:39:58;4.80;99.90
11043;DHT22;5574;48.786;10.120;2023-04-03T02:42:26;4.80;99.90
11043;DHT22;5574;48.786;10.120;2023-04-03T02:44:52;4.80;99.90
11043;DHT22;5574;48.786;10.120;2023-04-03T02:47:19;4.80;99.90
11043;DHT22;5574;48.786;10.120;2023-04-03T02:49:46;4.80;99.90
11043;DHT22;5574;48.786;10.120;2023-04-03T02:52:13;4.70;99.90
11043;DHT22;5574;48.786;10.120;2023-04-03T02:54:40;4.80;99.90
11043;DHT22;5574;48.786;10.120;2023-04-03T02:57:07;4.70;99.90
11043;DHT22;5574;48.786;10.120;2023-04-03T02:59:35;4.70;99.90
11043;DHT22;5574;48.786;10.120;2023-04-03T03:02:02;4.70;99.90
11043;DHT22;5574;48.786;10.120;2023-04-03T03:04:29;4.80;99.90
11043;DHT22;5574;48.786;10.120;2023-04-03T03:06:55;4.70;99.90
11043;DHT22;5574;48.786;10.120;2023-04-03T03:09:22;4.70;99.90
11043;DHT22;5574;48.786;10.120;2023-04-03T03:11:49;4.70;99.90
11043;DHT22;5574;48.786;10.120;2023-04-03T03:14:15;4.70;99.90
11043;DHT22;5574;48.786;10.120;2023-04-03T03:16:44;4.70;99.90
11043;DHT22;5574;48.786;10.120;2023-04-03T03:19:10;4.70;99.90
11043;DHT22;5574;48.786;10.120;2023-04-03T03:21:37;4.70;99.90
11043;DHT22;5574;48.786;10.120;2023-04-03T03:24:04;4.70;99.90
11043;DHT22;5574;48.786;10.120;2023-04-03T03:26:31;4.80;99.90
11043;DHT22;5574;48.786;10.120;2023-04-03T03:28:58;4.70;99.90
11043;DHT22;5574;48.786;10.120;2023-04-03T03:31:24;4.80;99.90
11043;DHT22;5574;48.786;10.120;2023-04-03T03:33:52;4.80;99.90
11043;DHT22;5574;48.786;10.120;2023-04-03T03:36:19;4.70;99.90
11043;DHT22;5574;48.786;10.120;2023-04-03T03:38:46;4.70;99.90
11043;DHT22;5574;48.786;10.120;2023-04-03T03:41:13;4.70;99.90
11043;DHT22;5574;48.786;10.120;2023-04-03T03:43:39;4.70;99.90
11043;DHT22;5574;48.786;10.120;2023-04-03T03:46:06;4.70;99.90
11043;DHT22;5574;48.786;10.120;2023-04-03T03:48:33;4.70;99.90
11043;DHT22;5574;48.786;10.120;2023-04-03T03:51:01;4.70;99.90
11043;DHT22;5574;48.786;10.120;2023-04-03T03:53:28;4.60;99.90
11043;DHT22;5574;48.786;10.120;2023-04-03T03:55:54;4.60;99.90
11043;DHT22;5574;48.786;10.120;2023-04-03T03:58:21;4.60;99.90
11043;DHT22;5574;48.786;10.120;2023-04-03T04:00:48;4.60;99.90
11043;DHT22;5574;48.786;10.120;2023-04-03T04:03:15;4.70;99.90
11043;DHT22;5574;48.786;10.120;2023-04-03T04:05:41;4.60;99.90
11043;DHT22;5574;48.786;10.120;2023-04-03T04:08:09;4.60;99.90
11043;DHT22;5574;48.786;10.120;2023-04-03T04:10:37;4.60;99.90
11043;DHT22;5574;48.786;10.120;2023-04-03T04:13:04;4.60;99.90
11043;DHT22;5574;48.786;10.120;2023-04-03T04:15:31;4.50;99.90
11043;DHT22;5574;48.786;10.120;2023-04-03T04:17:58;4.50;99.90
11043;DHT22;5574;48.786;10.120;2023-04-03T04:20:24;4.50;99.90
11043;DHT22;5574;48.786;10.120;2023-04-03T04:22:51;4.50;99.90
11043;DHT22;5574;48.786;10.120;2023-04-03T04:25:19;4.50;99.90
11043;DHT22;5574;48.786;10.120;2023-04-03T04:27:46;4.50;99.90
11043;DHT22;5574;48.786;10.120;2023-04-03T04:30:13;4.40;99.90
11043;DHT22;5574;48.786;10.120;2023-04-03T04:32:40;4.40;99.90
11043;DHT22;5574;48.786;10.120;2023-04-03T04:35:08;4.40;99.90
11043;DHT22;5574;48.786;10.120;2023-04-03T04:37:35;4.20;99.90
11043;DHT22;5574;48.786;10.120;2023-04-03T04:40:02;4.20;99.90
11043;DHT22;5574;48.786;10.120;2023-04-03T04:42:30;4.30;99.90
11043;DHT22;5574;48.786;10.120;2023-04-03T04:44:56;4.20;99.90
11043;DHT22;5574;48.786;10.120;2023-04-03T04:47:23;4.20;99.90
11043;DHT22;5574;48.786;10.120;2023-04-03T04:49:50;4.10;99.90
11043;DHT22;5574;48.786;10.120;2023-04-03T04:52:16;4.10;99.90
11043;DHT22;5574;48.786;10.120;2023-04-03T04:54:43;4.10;99.90
11043;DHT22;5574;48.786;10.120;2023-04-03T04:57:10;4.10;99.90
11043;DHT22;5574;48.786;10.120;2023-04-03T04:59:38;4.10;99.90
11043;DHT22;5574;48.786;10.120;2023-04-03T05:02:04;4.10;99.90
11043;DHT22;5574;48.786;10.120;2023-04-03T05:04:31;4.10;99.90
11043;DHT22;5574;48.786;10.120;2023-04-03T05:06:58;4.00;99.90
11043;DHT22;5574;48.786;10.120;2023-04-03T05:09:25;4.00;99.90
11043;DHT22;5574;48.786;10.120;2023-04-03T05:11:52;4.00;99.90
11043;DHT22;5574;48.786;10.120;2023-04-03T05:14:19;4.00;99.90
11043;DHT22;5574;48.786;10.120;2023-04-03T05:16:47;4.00;99.90
11043;DHT22;5574;48.786;10.120;2023-04-03T05:19:14;3.90;99.90
11043;DHT22;5574;48.786;10.120;2023-04-03T05:21:41;3.90;99.90
11043;DHT22;5574;48.786;10.120;2023-04-03T05:24:08;4.00;99.90
11043;DHT22;5574;48.786;10.120;2023-04-03T05:26:35;4.00;99.90
11043;DHT22;5574;48.786;10.120;2023-04-03T05:29:01;4.00;99.90
11043;DHT22;5574;48.786;10.120;2023-04-03T05:31:28;4.00;99.90
11043;DHT22;5574;48.786;10.120;2023-04-03T05:33:57;4.10;99.90
11043;DHT22;5574;48.786;10.120;2023-04-03T05:36:23;4.10;99.90
11043;DHT22;5574;48.786;10.120;2023-04-03T05:38:50;4.20;99.90
11043;DHT22;5574;48.786;10.120;2023-04-03T05:41:17;4.30;99.90
11043;DHT22;5574;48.786;10.120;2023-04-03T05:43:44;4.40;99.90
11043;DHT22;5574;48.786;10.120;2023-04-03T05:46:11;4.40;99.90
11043;DHT22;5574;48.786;10.120;2023-04-03T05:48:38;4.40;99.90
11043;DHT22;5574;48.786;10.120;2023-04-03T05:51:09;4.40;99.90
11043;DHT22;5574;48.786;10.120;2023-04-03T05:53:39;4.40;99.90
11043;DHT22;5574;48.786;10.120;2023-04-03T05:56:06;4.60;99.90
11043;DHT22;5574;48.786;10.120;2023-04-03T05:58:33;4.60;99.90
11043;DHT22;5574;48.786;10.120;2023-04-03T06:01:00;4.80;99.90
11043;DHT22;5574;48.786;10.120;2023-04-03T06:03:26;4.70;99.90
11043;DHT22;5574;48.786;10.120;2023-04-03T06:05:53;4.80;99.90
11043;DHT22;5574;48.786;10.120;2023-04-03T06:08:22;4.70;99.90
11043;DHT22;5574;48.786;10.120;2023-04-03T06:10:49;4.70;99.90
11043;DHT22;5574;48.786;10.120;2023-04-03T06:13:15;4.70;99.90
11043;DHT22;5574;48.786;10.120;2023-04-03T06:15:42;4.70;99.90
11043;DHT22;5574;48.786;10.120;2023-04-03T06:18:09;4.70;99.90
11043;DHT22;5574;48.786;10.120;2023-04-03T06:20:36;4.60;99.90
11043;DHT22;5574;48.786;10.120;2023-04-03T06:23:03;4.60;99.90
11043;DHT22;5574;48.786;10.120;2023-04-03T06:25:31;4.50;99.90
11043;DHT22;5574;48.786;10.120;2023-04-03T06:27:59;4.60;99.90
11043;DHT22;5574;48.786;10.120;2023-04-03T06:30:26;4.50;99.90
11043;DHT22;5574;48.786;10.120;2023-04-03T06:32:53;4.50;99.90
11043;DHT22;5574;48.786;10.120;2023-04-03T06:35:21;4.50;99.90
11043;DHT22;5574;48.786;10.120;2023-04-03T06:37:49;4.60;99.90
11043;DHT22;5574;48.786;10.120;2023-04-03T06:40:18;4.70;99.90
11043;DHT22;5574;48.786;10.120;2023-04-03T06:42:47;4.70;99.90
11043;DHT22;5574;48.786;10.120;2023-04-03T06:45:14;4.70;99.90
11043;DHT22;5574;48.786;10.120;2023-04-03T06:47:41;4.70;99.90
11043;DHT22;5574;48.786;10.120;2023-04-03T06:50:10;4.70;99.90
11043;DHT22;5574;48.786;10.120;2023-04-03T06:52:39;4.80;99.90
11043;DHT22;5574;48.786;10.120;2023-04-03T06:55:07;4.70;99.90
11043;DHT22;5574;48.786;10.120;2023-04-03T06:57:34;4.90;99.90
11043;DHT22;5574;48.786;10.120;2023-04-03T07:00:05;4.90;99.90
11043;DHT22;5574;48.786;10.120;2023-04-03T07:02:32;4.90;99.90
11043;DHT22;5574;48.786;10.120;2023-04-03T07:04:59;4.90;99.90
11043;DHT22;5574;48.786;10.120;2023-04-03T07:07:26;4.90;99.90
11043;DHT22;5574;48.786;10.120;2023-04-03T07:09:53;4.90;99.90
11043;DHT22;5574;48.786;10.120;2023-04-03T07:12:20;5.10;99.90
11043;DHT22;5574;48.786;10.120;2023-04-03T07:14:46;5.20;99.90
11043;DHT22;5574;48.786;10.120;2023-04-03T07:17:14;5.70;99.90
11043;DHT22;5574;48.786;10.120;2023-04-03T07:19:41;5.90;99.90
11043;DHT22;5574;48.786;10.120;2023-04-03T07:22:08;5.80;99.90
11043;DHT22;5574;48.786;10.120;2023-04-03T07:24:36;5.80;99.90
11043;DHT22;5574;48.786;10.120;2023-04-03T07:27:03;5.70;99.90
11043;DHT22;5574;48.786;10.120;2023-04-03T07:29:30;5.40;99.90
11043;DHT22;5574;48.786;10.120;2023-04-03T07:31:56;5.40;99.90
11043;DHT22;5574;48.786;10.120;2023-04-03T07:34:24;5.40;99.90
11043;DHT22;5574;48.786;10.120;2023-04-03T07:36:51;5.30;99.90
11043;DHT22;5574;48.786;10.120;2023-04-03T07:39:18;5.10;99.90
11043;DHT22;5574;48.786;10.120;2023-04-03T07:41:45;5.50;99.90
11043;DHT22;5574;48.786;10.120;2023-04-03T07:44:12;5.30;99.90
11043;DHT22;5574;48.786;10.120;2023-04-03T07:46:38;5.80;99.90
11043;DHT22;5574;48.786;10.120;2023-04-03T07:49:05;6.00;99.90
11043;DHT22;5574;48.786;10.120;2023-04-03T07:51:34;6.10;99.90
11043;DHT22;5574;48.786;10.120;2023-04-03T07:54:01;6.30;99.90
11043;DHT22;5574;48.786;10.120;2023-04-03T07:56:28;6.30;99.90
11043;DHT22;5574;48.786;10.120;2023-04-03T07:58:54;6.40;99.90
11043;DHT22;5574;48.786;10.120;2023-04-03T08:01:21;6.30;99.90
11043;DHT22;5574;48.786;10.120;2023-04-03T08:03:48;5.90;99.90
11043;DHT22;5574;48.786;10.120;2023-04-03T08:06:14;6.30;99.90
11043;DHT22;5574;48.786;10.120;2023-04-03T08:08:43;6.20;99.90
11043;DHT22;5574;48.786;10.120;2023-04-03T08:11:10;6.10;99.90
11043;DHT22;5574;48.786;10.120;2023-04-03T08:13:38;6.20;99.90
11043;DHT22;5574;48.786;10.120;2023-04-03T08:16:08;6.30;99.90
11043;DHT22;5574;48.786;10.120;2023-04-03T08:18:35;6.60;99.90
11043;DHT22;5574;48.786;10.120;2023-04-03T08:21:06;6.70;99.90
11043;DHT22;5574;48.786;10.120;2023-04-03T08:23:33;6.90;99.90
11043;DHT22;5574;48.786;10.120;2023-04-03T08:26:05;6.90;99.90
11043;DHT22;5574;48.786;10.120;2023-04-03T08:28:32;7.30;99.90
11043;DHT22;5574;48.786;10.120;2023-04-03T08:31:03;7.50;99.90
11043;DHT22;5574;48.786;10.120;2023-04-03T08:33:31;7.60;99.90
11043;DHT22;5574;48.786;10.120;2023-04-03T08:35:57;7.20;99.90
11043;DHT22;5574;48.786;10.120;2023-04-03T08:38:25;7.00;99.90
11043;DHT22;5574;48.786;10.120;2023-04-03T08:41:04;6.80;99.90
11043;DHT22;5574;48.786;10.120;2023-04-03T08:43:37;6.60;99.90
11043;DHT22;5574;48.786;10.120;2023-04-03T08:46:06;6.30;99.90
11043;DHT22;5574;48.786;10.120;2023-04-03T08:48:40;6.20;99.90
11043;DHT22;5574;48.786;10.120;2023-04-03T08:51:12;5.90;99.90
11043;DHT22;5574;48.786;10.120;2023-04-03T08:53:43;5.70;99.90
11043;DHT22;5574;48.786;10.120;2023-04-03T08:56:13;5.60;99.90
11043;DHT22;5574;48.786;10.120;2023-04-03T08:58:47;5.50;99.90
11043;DHT22;5574;48.786;10.120;2023-04-03T09:01:19;5.70;99.90
11043;DHT22;5574;48.786;10.120;2023-04-03T09:03:47;5.80;99.90
11043;DHT22;5574;48.786;10.120;2023-04-03T09:06:15;5.70;99.90
11043;DHT22;5574;48.786;10.120;2023-04-03T09:08:46;5.70;99.90
11043;DHT22;5574;48.786;10.120;2023-04-03T09:11:21;5.60;99.90
11043;DHT22;5574;48.786;10.120;2023-04-03T09:13:53;5.50;99.90
11043;DHT22;5574;48.786;10.120;2023-04-03T09:16:28;5.40;99.90
11043;DHT22;5574;48.786;10.120;2023-04-03T09:19:04;5.40;99.90
11043;DHT22;5574;48.786;10.120;2023-04-03T09:21:36;5.40;99.90
11043;DHT22;5574;48.786;10.120;2023-04-03T09:24:06;5.50;99.90
11043;DHT22;5574;48.786;10.120;2023-04-03T09:26:39;5.50;99.90
11043;DHT22;5574;48.786;10.120;2023-04-03T09:29:14;5.60;99.90
11043;DHT22;5574;48.786;10.120;2023-04-03T09:31:43;5.70;99.90
11043;DHT22;5574;48.786;10.120;2023-04-03T09:34:17;5.60;99.90
11043;DHT22;5574;48.786;10.120;2023-04-03T09:36:48;5.50;99.90
11043;DHT22;5574;48.786;10.120;2023-04-03T09:39:17;5.60;99.90
11043;DHT22;5574;48.786;10.120;2023-04-03T09:41:57;5.60;99.90
11043;DHT22;5574;48.786;10.120;2023-04-03T09:44:26;5.60;99.90
11043;DHT22;5574;48.786;10.120;2023-04-03T09:46:52;5.60;99.90
11043;DHT22;5574;48.786;10.120;2023-04-03T09:49:19;5.60;99.90
11043;DHT22;5574;48.786;10.120;2023-04-03T09:51:46;5.60;99.90
11043;DHT22;5574;48.786;10.120;2023-04-03T09:54:34;5.70;99.90
11043;DHT22;5574;48.786;10.120;2023-04-03T09:57:08;5.50;99.90
11043;DHT22;5574;48.786;10.120;2023-04-03T09:59:43;5.50;99.90
11043;DHT22;5574;48.786;10.120;2023-04-03T10:02:23;5.50;99.90
11043;DHT22;5574;48.786;10.120;2023-04-03T10:04:51;5.70;99.90
11043;DHT22;5574;48.786;10.120;2023-04-03T10:07:31;5.70;99.90
11043;DHT22;5574;48.786;10.120;2023-04-03T10:10:00;5.80;99.90
11043;DHT22;5574;48.786;10.120;2023-04-03T10:12:29;5.70;99.90
11043;DHT22;5574;48.786;10.120;2023-04-03T10:14:57;5.70;99.90
11043;DHT22;5574;48.786;10.120;2023-04-03T10:17:36;5.70;99.90
11043;DHT22;5574;48.786;10.120;2023-04-03T10:20:09;5.70;99.90
11043;DHT22;5574;48.786;10.120;2023-04-03T10:22:46;5.70;99.90
11043;DHT22;5574;48.786;10.120;2023-04-03T10:25:20;5.60;99.10
11043;DHT22;5574;48.786;10.120;2023-04-03T10:27:54;5.70;99.90
11043;DHT22;5574;48.786;10.120;2023-04-03T10:30:33;5.80;99.90
11043;DHT22;5574;48.786;10.120;2023-04-03T10:36:12;5.70;99.70
11043;DHT22;5574;48.786;10.120;2023-04-03T10:38:51;5.60;98.70
11043;DHT22;5574;48.786;10.120;2023-04-03T10:41:24;5.50;98.70
11043;DHT22;5574;48.786;10.120;2023-04-03T10:44:00;5.30;97.90
11043;DHT22;5574;48.786;10.120;2023-04-03T10:46:36;5.50;99.70
11043;DHT22;5574;48.786;10.120;2023-04-03T10:49:13;5.50;99.90
11043;DHT22;5574;48.786;10.120;2023-04-03T10:51:45;5.70;99.50
11043;DHT22;5574;48.786;10.120;2023-04-03T10:54:16;5.70;98.70
11043;DHT22;5574;48.786;10.120;2023-04-03T10:56:48;5.70;97.70
11043;DHT22;5574;48.786;10.120;2023-04-03T10:59:23;5.50;98.50
11043;DHT22;5574;48.786;10.120;2023-04-03T11:01:55;5.50;98.40
11043;DHT22;5574;48.786;10.120;2023-04-03T11:04:25;5.50;98.40
11043;DHT22;5574;48.786;10.120;2023-04-03T11:06:58;5.50;97.90
11043;DHT22;5574;48.786;10.120;2023-04-03T11:09:28;5.50;97.80
11043;DHT22;5574;48.786;10.120;2023-04-03T11:11:58;5.60;99.60
11043;DHT22;5574;48.786;10.120;2023-04-03T11:14:30;5.70;99.30
11043;DHT22;5574;48.786;10.120;2023-04-03T11:17:15;5.80;99.00
11043;DHT22;5574;48.786;10.120;2023-04-03T11:19:50;5.70;98.60
11043;DHT22;5574;48.786;10.120;2023-04-03T11:22:24;5.80;99.90
11043;DHT22;5574;48.786;10.120;2023-04-03T11:24:58;5.70;98.70
11043;DHT22;5574;48.786;10.120;2023-04-03T11:27:26;5.70;99.20
11043;DHT22;5574;48.786;10.120;2023-04-03T11:29:58;5.70;98.80
11043;DHT22;5574;48.786;10.120;2023-04-03T11:32:48;5.80;99.90
11043;DHT22;5574;48.786;10.120;2023-04-03T11:35:19;5.90;99.40
11043;DHT22;5574;48.786;10.120;2023-04-03T11:37:48;5.90;97.90
11043;DHT22;5574;48.786;10.120;2023-04-03T11:40:24;5.90;98.40
11043;DHT22;5574;48.786;10.120;2023-04-03T11:42:54;6.00;98.50
11043;DHT22;5574;48.786;10.120;2023-04-03T11:45:38;6.10;98.70
11043;DHT22;5574;48.786;10.120;2023-04-03T11:48:06;6.00;97.70
11043;DHT22;5574;48.786;10.120;2023-04-03T11:50:42;5.90;98.20
11043;DHT22;5574;48.786;10.120;2023-04-03T11:53:34;5.80;98.80
11043;DHT22;5574;48.786;10.120;2023-04-03T11:56:26;5.80;99.80
11043;DHT22;5574;48.786;10.120;2023-04-03T11:59:16;5.70;98.00
11043;DHT22;5574;48.786;10.120;2023-04-03T12:01:50;5.70;98.10
11043;DHT22;5574;48.786;10.120;2023-04-03T12:04:18;5.60;97.80
11043;DHT22;5574;48.786;10.120;2023-04-03T12:07:01;5.60;99.50
11043;DHT22;5574;48.786;10.120;2023-04-03T12:09:56;5.80;99.90
11043;DHT22;5574;48.786;10.120;2023-04-03T12:12:33;5.90;98.30
11043;DHT22;5574;48.786;10.120;2023-04-03T12:15:46;5.90;97.00
11043;DHT22;5574;48.786;10.120;2023-04-03T12:18:58;5.90;96.50
11043;DHT22;5574;48.786;10.120;2023-04-03T12:24:27;6.10;97.10
11043;DHT22;5574;48.786;10.120;2023-04-03T12:27:14;6.10;97.00
11043;DHT22;5574;48.786;10.120;2023-04-03T12:29:47;6.20;96.10
11043;DHT22;5574;48.786;10.120;2023-04-03T12:32:25;6.30;97.20
11043;DHT22;5574;48.786;10.120;2023-04-03T12:35:07;6.30;95.40
11043;DHT22;5574;48.786;10.120;2023-04-03T12:37:51;6.50;95.70
11043;DHT22;5574;48.786;10.120;2023-04-03T12:40:26;6.50;95.70
11043;DHT22;5574;48.786;10.120;2023-04-03T12:43:28;6.40;96.80
11043;DHT22;5574;48.786;10.120;2023-04-03T12:46:02;6.40;96.30
11043;DHT22;5574;48.786;10.120;2023-04-03T12:48:30;6.40;96.30
11043;DHT22;5574;48.786;10.120;2023-04-03T12:51:00;6.40;97.40
11043;DHT22;5574;48.786;10.120;2023-04-03T12:53:31;6.30;95.80
11043;DHT22;5574;48.786;10.120;2023-04-03T12:56:20;6.20;96.70
11043;DHT22;5574;48.786;10.120;2023-04-03T12:58:48;6.30;95.70
11043;DHT22;5574;48.786;10.120;2023-04-03T13:01:16;6.40;94.30
11043;DHT22;5574;48.786;10.120;2023-04-03T13:03:47;6.50;95.40
11043;DHT22;5574;48.786;10.120;2023-04-03T13:06:18;6.40;95.00
11043;DHT22;5574;48.786;10.120;2023-04-03T13:08:49;6.50;95.00
11043;DHT22;5574;48.786;10.120;2023-04-03T13:11:17;6.60;97.00
11043;DHT22;5574;48.786;10.120;2023-04-03T13:13:54;6.60;96.10
11043;DHT22;5574;48.786;10.120;2023-04-03T13:16:21;6.50;95.70
11043;DHT22;5574;48.786;10.120;2023-04-03T13:18:51;6.40;95.50
11043;DHT22;5574;48.786;10.120;2023-04-03T13:21:21;6.20;95.30
11043;DHT22;5574;48.786;10.120;2023-04-03T13:23:50;6.00;95.20
11043;DHT22;5574;48.786;10.120;2023-04-03T13:26:18;5.90;95.40
11043;DHT22;5574;48.786;10.120;2023-04-03T13:28:47;5.90;96.60
11043;DHT22;5574;48.786;10.120;2023-04-03T13:31:20;5.80;96.00
11043;DHT22;5574;48.786;10.120;2023-04-03T13:33:57;5.70;95.70
11043;DHT22;5574;48.786;10.120;2023-04-03T13:36:29;5.70;96.10
11043;DHT22;5574;48.786;10.120;2023-04-03T13:39:02;5.70;96.10
11043;DHT22;5574;48.786;10.120;2023-04-03T13:41:31;5.70;95.70
11043;DHT22;5574;48.786;10.120;2023-04-03T13:44:17;5.70;95.70
11043;DHT22;5574;48.786;10.120;2023-04-03T13:46:44;5.90;96.40
11043;DHT22;5574;48.786;10.120;2023-04-03T13:49:20;6.10;97.80
11043;DHT22;5574;48.786;10.120;2023-04-03T13:51:48;6.00;96.40
11043;DHT22;5574;48.786;10.120;2023-04-03T13:54:19;6.10;94.50
11043;DHT22;5574;48.786;10.120;2023-04-03T13:56:53;6.30;96.20
11043;DHT22;5574;48.786;10.120;2023-04-03T13:59:23;6.20;95.20
11043;DHT22;5574;48.786;10.120;2023-04-03T14:01:53;6.30;94.90
11043;DHT22;5574;48.786;10.120;2023-04-03T14:04:22;6.30;95.60
11043;DHT22;5574;48.786;10.120;2023-04-03T14:06:50;6.40;95.10
11043;DHT22;5574;48.786;10.120;2023-04-03T14:09:18;6.40;95.10
11043;DHT22;5574;48.786;10.120;2023-04-03T14:11:46;6.30;93.20
11043;DHT22;5574;48.786;10.120;2023-04-03T14:14:17;6.20;93.40
11043;DHT22;5574;48.786;10.120;2023-04-03T14:16:46;6.20;92.60
11043;DHT22;5574;48.786;10.120;2023-04-03T14:19:21;6.30;92.90
11043;DHT22;5574;48.786;10.120;2023-04-03T14:21:50;6.30;92.90
11043;DHT22;5574;48.786;10.120;2023-04-03T14:24:18;6.20;91.40
11043;DHT22;5574;48.786;10.120;2023-04-03T14:26:45;6.30;92.50
11043;DHT22;5574;48.786;10.120;2023-04-03T14:29:13;6.70;93.70
11043;DHT22;5574;48.786;10.120;2023-04-03T14:31:40;7.00;90.90
11043;DHT22;5574;48.786;10.120;2023-04-03T14:34:08;7.30;92.20
11043;DHT22;5574;48.786;10.120;2023-04-03T14:36:35;7.10;84.70
11043;DHT22;5574;48.786;10.120;2023-04-03T14:39:06;7.10;88.70
11043;DHT22;5574;48.786;10.120;2023-04-03T14:41:34;6.90;86.50
11043;DHT22;5574;48.786;10.120;2023-04-03T14:44:01;6.80;87.60
11043;DHT22;5574;48.786;10.120;2023-04-03T14:46:30;6.70;90.40
11043;DHT22;5574;48.786;10.120;2023-04-03T14:48:57;6.60;91.40
11043;DHT22;5574;48.786;10.120;2023-04-03T14:51:24;6.60;93.20
11043;DHT22;5574;48.786;10.120;2023-04-03T14:53:52;6.60;93.20
11043;DHT22;5574;48.786;10.120;2023-04-03T14:56:24;6.50;91.50
11043;DHT22;5574;48.786;10.120;2023-04-03T14:58:56;6.60;93.20
11043;DHT22;5574;48.786;10.120;2023-04-03T15:01:23;6.70;93.00
11043;DHT22;5574;48.786;10.120;2023-04-03T15:03:50;6.60;90.70
11043;DHT22;5574;48.786;10.120;2023-04-03T15:06:17;6.40;90.00
11043;DHT22;5574;48.786;10.120;2023-04-03T15:08:45;6.50;92.60
11043;DHT22;5574;48.786;10.120;2023-04-03T15:11:12;6.60;92.40
11043;DHT22;5574;48.786;10.120;2023-04-03T15:13:40;6.70;91.50
11043;DHT22;5574;48.786;10.120;2023-04-03T15:16:13;6.70;90.20
11043;DHT22;5574;48.786;10.120;2023-04-03T15:18:41;6.60;90.30
11043;DHT22;5574;48.786;10.120;2023-04-03T15:21:08;6.60;90.60
11043;DHT22;5574;48.786;10.120;2023-04-03T15:23:35;6.60;93.40
11043;DHT22;5574;48.786;10.120;2023-04-03T15:26:02;6.50;91.70
11043;DHT22;5574;48.786;10.120;2023-04-03T15:28:31;6.40;91.00
11043;DHT22;5574;48.786;10.120;2023-04-03T15:31:00;6.30;90.50
11043;DHT22;5574;48.786;10.120;2023-04-03T15:33:27;6.20;88.80
11043;DHT22;5574;48.786;10.120;2023-04-03T15:35:54;6.20;89.30
11043;DHT22;5574;48.786;10.120;2023-04-03T15:38:20;6.60;92.20
11043;DHT22;5574;48.786;10.120;2023-04-03T15:40:47;7.00;92.80
11043;DHT22;5574;48.786;10.120;2023-04-03T15:43:14;7.50;89.40
11043;DHT22;5574;48.786;10.120;2023-04-03T15:45:42;7.50;86.00
11043;DHT22;5574;48.786;10.120;2023-04-03T15:48:10;7.40;85.90
11043;DHT22;5574;48.786;10.120;2023-04-03T15:50:38;7.20;89.80
11043;DHT22;5574;48.786;10.120;2023-04-03T15:53:05;6.90;88.00
11043;DHT22;5574;48.786;10.120;2023-04-03T15:55:34;6.80;90.70
11043;DHT22;5574;48.786;10.120;2023-04-03T15:58:01;6.70;90.50
11043;DHT22;5574;48.786;10.120;2023-04-03T16:00:28;6.60;91.80
11043;DHT22;5574;48.786;10.120;2023-04-03T16:02:58;6.50;91.20
11043;DHT22;5574;48.786;10.120;2023-04-03T16:05:27;6.40;90.20
11043;DHT22;5574;48.786;10.120;2023-04-03T16:07:54;6.40;90.80
11043;DHT22;5574;48.786;10.120;2023-04-03T16:10:20;6.40;90.90